Szczecin, Poland
Current Conditions -  °F | °C
As of 5:30 PM on Saturday 25 Oct 2014 (Local Time) from EPSC Reporting Station
Haze Haze  
Wind Chill: 35°   Ceiling: 800
Heat Index: 41°   Visibility: 3mi
Dew Point: 37°   Wind: 10mph
Humidity: 87%   Direction: 150°SSE
Pressure: 30.15"   Gusts: NA
Location:  53.43°N, 14.53°E
Report Text: EPSC 251530Z 15009KT 5000 BR SCT007 BKN008 05/03 Q1021
Loading
Personal Weather Stations






























Interactive Weather Map
Tropical Storm Tracking
New forecast layout! Learn more

10-Day Weather Forecast

Advertisements
Track Severe Weather on mobile